Time;durP1;ratioP1;P1;durP2;ratioP2;P2;SDS_P1;SDS_P2;PMS_P1;PMS_P2;Temp;Humidity;BMP_temperature;BMP_pressure;BME280_temperature;BME280_humidity;BME280_pressure;Samples;Min_cycle;Max_cycle;Signal;HPM_P1;HPM_P2
2021/05/11 00:01:20;;;;;;;0.10;0.10;;;18.90;79.00;;;;;;4193278;28;20052;-48
2021/05/11 00:03:43;;;;;;;1.20;0.30;;;18.90;79.10;;;;;;4208084;28;20136;-48
2021/05/11 00:06:05;;;;;;;0.00;0.00;;;18.90;79.20;;;;;;4207074;28;20044;-49
2021/05/11 00:08:26;;;;;;;0.10;0.10;;;18.90;79.30;;;;;;4199108;28;20048;-49
2021/05/11 00:10:46;;;;;;;0.00;0.00;;;18.80;80.20;;;;;;4191300;28;20048;-46
2021/05/11 00:13:07;;;;;;;0.03;0.03;;;18.80;79.30;;;;;;4206261;28;20059;-49
2021/05/11 00:15:29;;;;;;;0.00;0.00;;;18.80;79.30;;;;;;4191792;28;20114;-49
2021/05/11 00:17:50;;;;;;;0.00;0.00;;;18.80;79.30;;;;;;4190845;28;20058;-50
2021/05/11 00:20:13;;;;;;;0.30;0.30;;;18.80;79.40;;;;;;4175010;28;20079;-48
2021/05/11 00:22:34;;;;;;;0.00;0.00;;;18.80;79.50;;;;;;4207422;28;20085;-48
2021/05/11 00:24:55;;;;;;;2.40;2.20;;;18.80;79.60;;;;;;4207869;28;20048;-48
2021/05/11 00:27:16;;;;;;;0.47;0.47;;;18.80;79.60;;;;;;4207287;28;20055;-48
2021/05/11 00:29:37;;;;;;;0.00;0.00;;;18.80;79.70;;;;;;4205034;28;20441;-47
2021/05/11 00:31:58;;;;;;;0.75;0.75;;;18.80;79.70;;;;;;4208032;28;20048;-49
2021/05/11 00:34:20;;;;;;;0.00;0.00;;;18.80;79.80;;;;;;4208060;28;20039;-47
2021/05/11 00:36:41;;;;;;;0.10;0.10;;;18.80;80.00;;;;;;4199439;28;20479;-49
2021/05/11 00:39:02;;;;;;;0.20;0.20;;;18.80;80.00;;;;;;4198590;28;20543;-53
2021/05/11 00:41:23;;;;;;;0.65;0.65;;;18.80;80.00;;;;;;4207573;28;20676;-48
2021/05/11 00:43:45;;;;;;;0.45;0.45;;;18.80;79.90;;;;;;4200633;28;20487;-49
2021/05/11 00:46:06;;;;;;;0.20;0.20;;;18.80;79.90;;;;;;4191042;28;20415;-48
2021/05/11 00:48:27;;;;;;;0.32;0.32;;;18.80;79.90;;;;;;4190894;28;20495;-48
2021/05/11 00:50:48;;;;;;;0.00;0.00;;;18.80;80.00;;;;;;4190920;28;20117;-50
2021/05/11 00:53:10;;;;;;;0.00;0.00;;;18.80;80.00;;;;;;4192677;28;20113;-52
2021/05/11 00:55:31;;;;;;;0.00;0.00;;;18.80;80.00;;;;;;4208058;28;20048;-52
2021/05/11 00:57:52;;;;;;;0.00;0.00;;;18.80;79.90;;;;;;4201524;28;20044;-46
2021/05/11 01:00:13;;;;;;;0.00;0.00;;;18.70;79.90;;;;;;4207183;28;20073;-48
2021/05/11 01:02:34;;;;;;;0.20;0.20;;;18.70;80.10;;;;;;4207483;28;20052;-48
2021/05/11 01:04:57;;;;;;;0.10;0.10;;;18.70;80.00;;;;;;4205858;28;20185;-49
2021/05/11 01:07:18;;;;;;;0.45;0.45;;;18.70;80.00;;;;;;4202013;28;20122;-49
2021/05/11 01:09:39;;;;;;;;;;;18.70;80.10;;;;;;4191404;28;20041;-47
2021/05/11 01:12:00;;;;;;;15.00;1.65;;;18.70;80.20;;;;;;4190894;28;19932;-47
2021/05/11 01:14:21;;;;;;;0.17;0.17;;;18.70;80.30;;;;;;4191306;28;20129;-46
2021/05/11 01:16:46;;;;;;;0.25;0.25;;;18.70;80.20;;;;;;4190975;28;20040;-49
2021/05/11 01:19:11;;;;;;;0.10;0.10;;;18.70;80.20;;;;;;4189568;28;20045;-49
2021/05/11 01:21:41;;;;;;;2.20;0.55;;;18.70;80.30;;;;;;4189119;28;20123;-48
2021/05/11 01:24:07;;;;;;;0.00;0.00;;;18.70;80.30;;;;;;4200126;28;20131;-49
2021/05/11 01:26:31;;;;;;;0.00;0.00;;;18.70;80.40;;;;;;4206654;28;20573;-45
2021/05/11 01:28:59;;;;;;;0.20;0.20;;;18.70;80.30;;;;;;4175296;28;20479;-47
2021/05/11 01:45:01;;;;;;;0.00;0.00;;;18.60;80.60;;;;;;4205026;28;20047;-47
2021/05/11 01:50:16;;;;;;;0.00;0.00;;;18.60;80.60;;;;;;4178680;28;20044;-49
2021/05/11 01:52:50;;;;;;;0.28;0.28;;;18.60;80.60;;;;;;4194477;28;20143;-47
2021/05/11 02:17:51;;;;;;;0.38;0.38;;;18.70;81.60;;;;;;4191814;28;20499;-47
2021/05/11 02:24:48;;;;;;;0.00;0.00;;;18.60;80.80;;;;;;4192669;28;20410;-47
2021/05/11 02:27:10;;;;;;;0.47;0.47;;;18.60;80.80;;;;;;4192789;28;20044;-47
2021/05/11 02:29:31;;;;;;;0.00;0.00;;;18.60;81.70;;;;;;4209249;28;20060;-48
2021/05/11 02:31:52;;;;;;;0.10;0.10;;;18.60;80.90;;;;;;4209598;28;20494;-47
2021/05/11 02:34:13;;;;;;;0.20;0.20;;;18.60;80.80;;;;;;4209832;28;20055;-48
2021/05/11 02:36:34;;;;;;;0.20;0.20;;;18.60;80.80;;;;;;4203516;28;20171;-48
2021/05/11 02:38:55;;;;;;;0.00;0.00;;;18.60;80.90;;;;;;4193048;28;20044;-46
2021/05/11 02:41:16;;;;;;;0.10;0.10;;;18.60;80.90;;;;;;4192823;28;20140;-48
2021/05/11 02:43:38;;;;;;;0.00;0.00;;;18.60;80.90;;;;;;4193234;28;20502;-48
2021/05/11 02:45:59;;;;;;;0.10;0.10;;;18.60;80.80;;;;;;4192474;28;20063;-51
2021/05/11 02:48:20;;;;;;;0.20;0.20;;;18.60;80.80;;;;;;4192792;28;20053;-46
2021/05/11 02:50:41;;;;;;;0.00;0.00;;;18.60;80.90;;;;;;4192635;28;20509;-50
2021/05/11 02:53:03;;;;;;;0.47;0.38;;;18.60;80.90;;;;;;4195688;28;20488;-45
2021/05/11 02:55:25;;;;;;;0.52;0.52;;;18.60;81.00;;;;;;4209205;28;20047;-48
2021/05/11 02:57:46;;;;;;;0.20;0.20;;;18.60;81.00;;;;;;4206016;28;20139;-48
2021/05/11 03:00:11;;;;;;;0.00;0.00;;;18.60;81.00;;;;;;4192325;28;20102;-51
2021/05/11 03:02:32;;;;;;;0.00;0.00;;;18.60;81.10;;;;;;4175494;28;20048;-50
2021/05/11 03:04:53;;;;;;;0.00;0.00;;;18.60;81.00;;;;;;4175888;28;20468;-51
2021/05/11 03:07:14;;;;;;;0.00;0.00;;;18.60;81.10;;;;;;4174766;28;20132;-45
2021/05/11 03:09:35;;;;;;;0.13;0.13;;;18.50;81.00;;;;;;4184603;28;20049;-49
2021/05/11 03:11:57;;;;;;;0.08;0.08;;;18.50;81.10;;;;;;4192156;28;20495;-49
2021/05/11 03:14:18;;;;;;;0.60;0.60;;;18.60;81.20;;;;;;4208155;28;20047;-47
2021/05/11 03:16:40;;;;;;;0.00;0.00;;;18.50;81.10;;;;;;4209141;28;20463;-46
2021/05/11 03:19:01;;;;;;;0.43;0.30;;;18.50;81.20;;;;;;4209108;28;20462;-51
2021/05/11 03:21:22;;;;;;;0.00;0.00;;;18.50;81.30;;;;;;4195775;28;20114;-47
2021/05/11 03:23:42;;;;;;;0.00;0.00;;;18.50;81.30;;;;;;4203033;28;20043;-51
2021/05/11 03:26:05;;;;;;;0.00;0.00;;;18.60;81.30;;;;;;4208879;28;20060;-49
2021/05/11 03:28:27;;;;;;;0.00;0.00;;;18.50;81.30;;;;;;4198737;28;20561;-53
2021/05/11 03:30:48;;;;;;;4.10;1.45;;;18.50;81.30;;;;;;4194625;28;20133;-47
2021/05/11 03:33:10;;;;;;;0.00;0.00;;;18.50;81.40;;;;;;4208911;28;20040;-49
2021/05/11 03:35:31;;;;;;;0.20;0.20;;;18.50;81.40;;;;;;4208751;28;20040;-49
2021/05/11 03:37:53;;;;;;;0.00;0.00;;;18.50;81.40;;;;;;4208595;28;20573;-48
2021/05/11 03:40:14;;;;;;;0.40;0.40;;;18.50;81.40;;;;;;4208684;28;20546;-50
2021/05/11 03:42:39;;;;;;;0.00;0.00;;;18.50;81.50;;;;;;4181033;28;20050;-47
2021/05/11 03:45:03;;;;;;;0.20;0.20;;;18.50;81.50;;;;;;4208697;28;20483;-54
2021/05/11 03:47:26;;;;;;;0.05;0.05;;;18.50;81.50;;;;;;4208361;28;20052;-53
2021/05/11 03:49:49;;;;;;;0.80;0.65;;;18.50;81.50;;;;;;4194853;28;20173;-50
2021/05/11 03:52:11;;;;;;;0.20;0.20;;;18.50;81.50;;;;;;4191384;28;20474;-49
2021/05/11 03:54:33;;;;;;;0.00;0.00;;;18.50;81.50;;;;;;4191644;28;20052;-47
2021/05/11 03:56:54;;;;;;;0.28;0.28;;;18.50;81.50;;;;;;4191753;28;20060;-49
2021/05/11 03:59:16;;;;;;;0.15;0.15;;;18.50;81.60;;;;;;4191574;28;20055;-52
2021/05/11 04:01:37;;;;;;;0.00;0.00;;;18.50;81.60;;;;;;4191750;28;20043;-54
2021/05/11 04:03:59;;;;;;;0.10;0.10;;;18.50;81.70;;;;;;4191478;28;20056;-46
2021/05/11 04:06:22;;;;;;;0.32;0.30;;;18.50;82.00;;;;;;4191483;28;20117;-48
2021/05/11 04:08:47;;;;;;;0.00;0.00;;;18.50;81.90;;;;;;4196854;28;20499;-52
2021/05/11 04:11:31;;;;;;;0.93;0.28;;;18.50;81.90;;;;;;4191420;28;20048;-46
2021/05/11 04:16:29;;;;;;;0.10;0.10;;;18.40;81.90;;;;;;4220013;27;20362;-49
2021/05/11 04:18:51;;;;;;;0.08;0.08;;;18.50;82.00;;;;;;4221984;28;20043;-47
2021/05/11 04:21:13;;;;;;;0.00;0.00;;;18.40;82.00;;;;;;4222359;28;20135;-50
2021/05/11 04:23:38;;;;;;;0.00;0.00;;;18.40;82.10;;;;;;4222450;28;20144;-46
2021/05/11 04:26:00;;;;;;;0.47;0.47;;;18.40;82.10;;;;;;4222591;28;20051;-49
2021/05/11 04:28:21;;;;;;;0.03;0.03;;;18.40;82.20;;;;;;4205971;28;20055;-47
2021/05/11 04:30:43;;;;;;;0.10;0.10;;;18.40;82.20;;;;;;4204341;28;20052;-47
2021/05/11 04:33:06;;;;;;;0.00;0.00;;;18.40;82.30;;;;;;4205434;28;20052;-47
2021/05/11 04:35:27;;;;;;;0.28;0.28;;;18.40;82.30;;;;;;4205331;28;20498;-51
2021/05/11 04:37:49;;;;;;;0.00;0.00;;;18.40;82.30;;;;;;4198838;28;20209;-50
2021/05/11 04:40:11;;;;;;;0.05;0.05;;;18.40;82.30;;;;;;4188414;28;20506;-46
2021/05/11 04:42:35;;;;;;;0.10;0.10;;;18.40;82.30;;;;;;4188708;28;20052;-50
2021/05/11 04:44:59;;;;;;;0.20;0.20;;;18.40;82.30;;;;;;4188926;28;20098;-51
2021/05/11 04:47:28;;;;;;;0.10;0.10;;;18.40;82.30;;;;;;4190346;28;20047;-49
2021/05/11 04:49:51;;;;;;;0.00;0.00;;;18.40;82.30;;;;;;4188243;28;20044;-48
2021/05/11 04:52:13;;;;;;;0.00;0.00;;;18.40;82.50;;;;;;4204993;28;20044;-48
2021/05/11 04:54:34;;;;;;;2.00;0.90;;;18.30;82.50;;;;;;4204910;28;20068;-48
2021/05/11 04:56:56;;;;;;;0.10;0.10;;;18.40;82.60;;;;;;4205714;28;20049;-47
2021/05/11 04:59:17;;;;;;;0.50;0.50;;;18.40;82.70;;;;;;4216402;28;20062;-49
2021/05/11 05:01:40;;;;;;;0.38;0.38;;;18.40;82.70;;;;;;4221795;28;20047;-46
2021/05/11 05:04:03;;;;;;;0.10;0.10;;;18.40;82.80;;;;;;4205203;28;20595;-49
2021/05/11 05:06:25;;;;;;;0.20;0.20;;;18.40;82.80;;;;;;4189486;28;20041;-49
2021/05/11 05:08:46;;;;;;;1.45;0.90;;;18.40;83.10;;;;;;4212978;28;20763;-48
2021/05/11 05:11:08;;;;;;;0.22;0.22;;;18.40;83.40;;;;;;4204642;28;20082;-47
2021/05/11 05:13:30;;;;;;;0.13;0.13;;;18.40;83.80;;;;;;4204904;28;20059;-47
2021/05/11 05:15:52;;;;;;;0.30;0.30;;;18.50;83.60;;;;;;4204542;28;20453;-49
2021/05/11 05:18:14;;;;;;;0.00;0.00;;;18.50;83.40;;;;;;4215295;28;20491;-47
2021/05/11 05:20:35;;;;;;;1.00;0.63;;;18.40;83.30;;;;;;4204828;28;20052;-50
2021/05/11 05:22:58;;;;;;;0.25;0.25;;;18.40;83.20;;;;;;4213770;28;20055;-49
2021/05/11 05:25:23;;;;;;;0.20;0.20;;;18.40;83.30;;;;;;4221588;28;20507;-45
2021/05/11 05:27:48;;;;;;;0.50;0.45;;;18.40;83.20;;;;;;4209740;28;20564;-46
2021/05/11 05:30:12;;;;;;;0.28;0.28;;;18.40;83.20;;;;;;4211103;28;20077;-47
2021/05/11 05:32:33;;;;;;;0.13;0.13;;;18.40;83.20;;;;;;4206669;28;20071;-47
2021/05/11 05:34:55;;;;;;;0.10;0.10;;;18.40;83.30;;;;;;4193180;28;20406;-46
2021/05/11 05:37:16;;;;;;;0.00;0.00;;;18.40;83.30;;;;;;4197541;28;20052;-54
2021/05/11 05:39:41;;;;;;;1.02;1.00;;;18.40;83.40;;;;;;4203874;28;20045;-48
2021/05/11 05:42:03;;;;;;;0.70;0.70;;;18.30;83.40;;;;;;4195669;28;20060;-47
2021/05/11 05:44:25;;;;;;;0.00;0.00;;;18.30;83.40;;;;;;4210010;28;20044;-47
2021/05/11 05:46:47;;;;;;;0.55;0.55;;;18.30;83.40;;;;;;4209039;28;20508;-48
2021/05/11 05:49:09;;;;;;;1.95;1.27;;;18.30;83.40;;;;;;4193174;28;20064;-50
2021/05/11 05:51:31;;;;;;;0.00;0.00;;;18.30;83.40;;;;;;4192899;28;20048;-48
2021/05/11 05:53:52;;;;;;;0.00;0.00;;;18.30;83.40;;;;;;4193033;28;20124;-49
2021/05/11 05:56:16;;;;;;;1.55;0.55;;;18.30;84.10;;;;;;4192746;28;20044;-48
2021/05/11 05:58:39;;;;;;;0.10;0.10;;;18.30;84.30;;;;;;4193086;28;20048;-48
2021/05/11 06:01:03;;;;;;;0.10;0.10;;;18.30;84.30;;;;;;4192904;28;20483;-46
2021/05/11 06:03:38;;;;;;;0.00;0.00;;;18.30;84.60;;;;;;4205992;28;20044;-51
2021/05/11 06:06:00;;;;;;;0.00;0.00;;;18.30;84.20;;;;;;4207954;28;20048;-48
2021/05/11 06:08:21;;;;;;;0.00;0.00;;;18.40;84.10;;;;;;4200906;28;22198;-50
2021/05/11 06:10:43;;;;;;;0.13;0.13;;;18.30;83.90;;;;;;4192555;28;20103;-52
2021/05/11 06:13:09;;;;;;;0.13;0.13;;;18.40;84.00;;;;;;4176460;28;20071;-48
2021/05/11 06:18:12;;;;;;;0.00;0.00;;;18.30;83.60;;;;;;4196738;28;20055;-44
2021/05/11 06:20:34;;;;;;;13.25;0.47;;;18.30;83.60;;;;;;4209462;28;20052;-45
2021/05/11 06:22:55;;;;;;;0.00;0.00;;;18.30;83.60;;;;;;4209374;28;20071;-44
2021/05/11 06:25:17;;;;;;;0.10;0.10;;;18.30;83.50;;;;;;4209230;28;20490;-44
2021/05/11 06:27:38;;;;;;;;;;;18.30;83.50;;;;;;4197777;28;20048;-47
2021/05/11 06:30:01;;;;;;;0.00;0.00;;;18.30;83.50;;;;;;4190362;28;20436;-44
2021/05/11 06:32:23;;;;;;;0.00;0.00;;;18.30;83.40;;;;;;4193622;28;20143;-44
2021/05/11 06:34:47;;;;;;;0.22;0.22;;;18.30;83.40;;;;;;4195280;28;20498;-45
2021/05/11 06:37:09;;;;;;;0.00;0.00;;;18.30;83.40;;;;;;4182651;28;20114;-46
2021/05/11 06:39:30;;;;;;;0.00;0.00;;;18.30;83.30;;;;;;4174737;28;20052;-45
2021/05/11 06:41:53;;;;;;;;;;;18.30;83.20;;;;;;4182030;28;20057;-45
2021/05/11 06:44:23;;;;;;;0.10;0.10;;;18.30;83.20;;;;;;4180842;28;19928;-46
2021/05/11 06:47:13;;;;;;;0.00;0.00;;;18.30;83.10;;;;;;4181502;28;20058;-48
2021/05/11 06:49:42;;;;;;;0.00;0.00;;;18.20;83.20;;;;;;4189394;28;20320;-45
2021/05/11 06:54:46;;;;;;;0.10;0.10;;;18.20;83.10;;;;;;4179854;28;20075;-47
2021/05/11 06:57:08;;;;;;;0.00;0.00;;;18.20;83.10;;;;;;4189262;28;20506;-51
2021/05/11 06:59:30;;;;;;;0.10;0.10;;;18.20;83.10;;;;;;4187993;28;20049;-49
2021/05/11 07:01:53;;;;;;;0.08;0.08;;;18.20;83.10;;;;;;4188190;28;20049;-51
2021/05/11 07:04:14;;;;;;;20.38;1.85;;;18.20;83.10;;;;;;4187082;28;20052;-48
2021/05/11 07:06:38;;;;;;;0.00;0.00;;;18.20;83.10;;;;;;4174830;28;20041;-50
2021/05/11 07:09:04;;;;;;;0.28;0.28;;;18.20;83.10;;;;;;4174044;28;20134;-52
2021/05/11 07:13:06;;;;;;;0.57;0.57;;;18.20;83.00;;;;;;4182552;28;20059;-49
2021/05/11 07:14:14;;;;;;;0.00;0.00;;;18.20;83.10;;;;;;4204356;28;20044;-50
2021/05/11 07:16:36;;;;;;;0.00;0.00;;;18.20;83.10;;;;;;4181492;28;20096;-46
2021/05/11 07:18:59;;;;;;;0.00;0.00;;;18.20;83.10;;;;;;4186006;28;20479;-48
2021/05/11 07:21:21;;;;;;;0.00;0.00;;;18.20;83.10;;;;;;4191261;28;20082;-46
2021/05/11 07:23:42;;;;;;;0.00;0.00;;;18.30;83.10;;;;;;4191213;28;20110;-47
2021/05/11 07:26:10;;;;;;;0.08;0.08;;;18.20;83.10;;;;;;4194778;28;20047;-46
2021/05/11 07:28:48;;;;;;;0.10;0.10;;;18.20;83.10;;;;;;4191351;28;20649;-46
2021/05/11 07:31:11;;;;;;;0.00;0.00;;;18.30;83.60;;;;;;4194776;28;20503;-47
2021/05/11 07:33:35;;;;;;;0.00;0.00;;;18.30;83.50;;;;;;4199875;28;20049;-45
2021/05/11 07:35:58;;;;;;;0.00;0.00;;;18.20;83.40;;;;;;4191135;28;20526;-47
2021/05/11 07:38:20;;;;;;;0.00;0.00;;;18.20;83.30;;;;;;4174921;28;20412;-47
2021/05/11 07:40:41;;;;;;;0.00;0.00;;;18.20;83.30;;;;;;4176549;28;20060;-47
2021/05/11 07:43:03;;;;;;;0.20;0.20;;;18.20;83.30;;;;;;4174940;28;20060;-47
2021/05/11 07:45:31;;;;;;;0.88;0.88;;;18.20;83.40;;;;;;4178360;28;20032;-49
2021/05/11 07:50:50;;;;;;;0.00;0.00;;;18.20;83.30;;;;;;4177739;28;20041;-51
2021/05/11 08:14:43;;;;;;;0.17;0.17;;;18.30;83.30;;;;;;4184900;28;20047;-49
2021/05/11 08:17:06;;;;;;;0.00;0.00;;;18.30;83.30;;;;;;4207688;28;20047;-52
2021/05/11 08:22:20;;;;;;;0.10;0.10;;;18.40;83.20;;;;;;4207283;28;20130;-51
2021/05/11 08:27:34;;;;;;;1.23;1.10;;;18.40;83.10;;;;;;4207468;28;20040;-52
2021/05/11 08:29:55;;;;;;;0.00;0.00;;;18.40;83.00;;;;;;4207584;28;20282;-50
2021/05/11 08:32:17;;;;;;;0.08;0.08;;;18.40;83.00;;;;;;4207584;28;20047;-48
2021/05/11 08:34:38;;;;;;;0.00;0.00;;;18.40;82.90;;;;;;4206416;28;20051;-46
2021/05/11 08:37:00;;;;;;;0.10;0.10;;;18.40;82.80;;;;;;4190694;28;20216;-50
2021/05/11 08:39:22;;;;;;;0.00;0.00;;;18.50;82.90;;;;;;4179582;28;20509;-49
2021/05/11 08:41:44;;;;;;;0.00;0.00;;;18.50;82.80;;;;;;4190844;28;20131;-51
2021/05/11 08:44:12;;;;;;;0.00;0.00;;;18.50;83.60;;;;;;4190966;28;20118;-50
2021/05/11 08:46:36;;;;;;;0.55;0.55;;;18.50;82.80;;;;;;4187306;28;20099;-51
2021/05/11 08:49:03;;;;;;;1.50;1.40;;;18.60;82.80;;;;;;4187865;28;20041;-49
2021/05/11 08:51:27;;;;;;;0.10;0.10;;;18.50;82.60;;;;;;4182845;28;20044;-48
2021/05/11 08:54:20;;;;;;;0.00;0.00;;;18.50;82.60;;;;;;4180316;28;20056;-48
2021/05/11 09:05:14;;;;;;;0.00;0.00;;;18.60;82.40;;;;;;4200197;28;20044;-53
2021/05/11 09:16:33;;;;;;;0.22;0.22;;;18.90;81.60;;;;;;4126270;28;20216;-50
2021/05/11 09:24:47;;;;;;;0.20;0.20;;;19.10;80.70;;;;;;4184865;28;20132;-48
2021/05/11 09:27:23;;;;;;;0.70;0.63;;;19.10;80.50;;;;;;4187994;28;20055;-47
2021/05/11 09:29:49;;;;;;;0.30;0.30;;;19.10;80.20;;;;;;4178924;28;20052;-46
2021/05/11 09:32:29;;;;;;;0.00;0.00;;;19.20;80.00;;;;;;4176929;28;20049;-48
2021/05/11 09:35:24;;;;;;;0.08;0.08;;;19.20;79.80;;;;;;4176966;28;20049;-48
2021/05/11 09:52:00;;;;;;;0.38;0.25;;;19.40;79.30;;;;;;4195927;28;20066;-46
2021/05/11 09:54:25;;;;;;;0.00;0.00;;;19.40;79.20;;;;;;4176063;28;20068;-47
2021/05/11 09:56:54;;;;;;;1.58;1.48;;;19.40;79.10;;;;;;4177284;28;20592;-48
2021/05/11 09:59:50;;;;;;;0.20;0.20;;;19.40;78.90;;;;;;4189446;28;20052;-49
2021/05/11 10:44:25;;;;;;;2.53;1.65;;;19.20;79.90;;;;;;4183742;28;20049;-52
2021/05/11 10:46:53;;;;;;;1.58;1.58;;;19.20;80.00;;;;;;4183960;28;20562;-50
2021/05/11 10:49:25;;;;;;;2.40;1.98;;;19.20;80.00;;;;;;4188828;28;20062;-50
2021/05/11 10:52:03;;;;;;;6.22;3.28;;;19.30;79.90;;;;;;4190791;28;20127;-51
2021/05/11 10:54:36;;;;;;;5.68;4.53;;;19.30;79.80;;;;;;4185310;28;20045;-45
2021/05/11 11:05:10;;;;;;;3.80;3.47;;;19.40;79.50;;;;;;4201236;28;20047;-49
2021/05/11 11:07:34;;;;;;;0.38;0.38;;;19.40;79.10;;;;;;4199482;28;20052;-47
2021/05/11 11:09:59;;;;;;;3.92;3.72;;;19.40;78.60;;;;;;4176725;28;20128;-52
2021/05/11 11:12:21;;;;;;;2.00;1.88;;;19.40;78.60;;;;;;4175478;28;20135;-49
2021/05/11 11:14:44;;;;;;;1.70;1.65;;;19.50;78.40;;;;;;4179061;28;20113;-50
2021/05/11 11:17:07;;;;;;;1.85;1.85;;;19.60;78.20;;;;;;4174667;28;20057;-47
2021/05/11 11:19:30;;;;;;;2.05;1.95;;;19.60;78.00;;;;;;4175061;28;20045;-46
2021/05/11 11:22:02;;;;;;;1.17;1.17;;;19.70;77.70;;;;;;4175073;28;20073;-47
2021/05/11 11:24:27;;;;;;;1.88;1.70;;;19.70;77.40;;;;;;4172873;28;20064;-48
2021/05/11 11:26:52;;;;;;;1.05;1.02;;;19.80;77.10;;;;;;4174950;28;20103;-49
2021/05/11 11:29:14;;;;;;;5.07;3.15;;;19.90;77.00;;;;;;4175301;28;20048;-48
2021/05/11 11:31:39;;;;;;;0.90;0.90;;;19.90;76.90;;;;;;4175162;28;20049;-51
2021/05/11 11:34:14;;;;;;;4.18;1.92;;;19.90;76.80;;;;;;4174965;28;20521;-48
2021/05/11 11:36:37;;;;;;;4.70;3.17;;;19.90;76.50;;;;;;4191057;28;20063;-45
2021/05/11 11:39:00;;;;;;;1.23;0.85;;;19.90;76.30;;;;;;4191401;28;20040;-50
2021/05/11 11:41:24;;;;;;;1.73;1.65;;;20.00;76.10;;;;;;4191549;28;20052;-49
2021/05/11 11:43:51;;;;;;;1.13;1.02;;;19.90;75.90;;;;;;4191349;28;20595;-48
2021/05/11 11:46:23;;;;;;;3.53;1.77;;;20.00;75.90;;;;;;4191674;28;20040;-47
2021/05/11 11:48:56;;;;;;;0.20;0.20;;;20.00;75.70;;;;;;4194478;28;20052;-48
2021/05/11 11:51:25;;;;;;;0.82;0.82;;;19.90;75.70;;;;;;4207747;28;20052;-48
2021/05/11 11:53:47;;;;;;;0.68;0.57;;;20.00;75.80;;;;;;4192979;28;20076;-46
2021/05/11 11:56:37;;;;;;;1.27;1.27;;;19.90;75.70;;;;;;4191441;28;20098;-49
2021/05/11 11:59:04;;;;;;;1.23;1.23;;;19.90;75.90;;;;;;4190897;28;20059;-50
2021/05/11 12:01:26;;;;;;;0.32;0.32;;;19.90;75.90;;;;;;4191234;28;20487;-50
2021/05/11 12:03:54;;;;;;;0.63;0.63;;;19.80;76.10;;;;;;4191177;28;20076;-51
2021/05/11 12:06:28;;;;;;;6.13;1.60;;;19.80;76.10;;;;;;4190763;28;20125;-50
2021/05/11 12:08:51;;;;;;;8.30;2.75;;;19.80;76.30;;;;;;4191342;28;20427;-50
2021/05/11 12:11:12;;;;;;;0.45;0.45;;;19.80;76.50;;;;;;4190957;28;20048;-47
2021/05/11 12:13:37;;;;;;;0.22;0.22;;;19.80;76.70;;;;;;4190973;28;20547;-49
2021/05/11 12:16:15;;;;;;;2.08;1.65;;;19.80;76.70;;;;;;4191015;28;20048;-51
2021/05/11 12:18:41;;;;;;;3.83;1.25;;;19.80;76.70;;;;;;4190369;28;20087;-48
2021/05/11 12:21:05;;;;;;;0.22;0.22;;;19.80;76.80;;;;;;4190794;28;20071;-52
2021/05/11 12:23:27;;;;;;;2.35;1.15;;;19.80;76.70;;;;;;4190733;28;20128;-50
2021/05/11 12:25:55;;;;;;;3.00;0.88;;;19.80;76.70;;;;;;4194669;28;20048;-50
2021/05/11 12:28:30;;;;;;;0.80;0.80;;;19.80;76.60;;;;;;4207442;28;20486;-51
2021/05/11 12:30:54;;;;;;;0.10;0.10;;;19.80;76.30;;;;;;4206869;28;20494;-47
2021/05/11 12:33:17;;;;;;;0.55;0.55;;;19.80;76.30;;;;;;4204185;28;20044;-49
2021/05/11 12:35:41;;;;;;;2.35;1.55;;;19.80;76.20;;;;;;4207578;28;20048;-51
2021/05/11 12:38:14;;;;;;;0.10;0.10;;;19.80;76.20;;;;;;4210537;28;20097;-48
2021/05/11 12:41:03;;;;;;;0.08;0.08;;;19.80;76.20;;;;;;4208845;28;20067;-49
2021/05/11 12:43:39;;;;;;;0.60;0.60;;;19.80;76.10;;;;;;4210809;28;20043;-49
2021/05/11 12:46:00;;;;;;;0.32;0.32;;;19.80;76.00;;;;;;4210445;28;20487;-48
2021/05/11 12:48:23;;;;;;;0.43;0.43;;;19.80;76.00;;;;;;4210578;28;20442;-52
2021/05/11 12:50:46;;;;;;;0.17;0.17;;;19.70;76.20;;;;;;4210822;28;20067;-48
2021/05/11 12:53:26;;;;;;;0.22;0.22;;;19.70;76.30;;;;;;4196477;28;20052;-52
2021/05/11 12:56:01;;;;;;;0.10;0.10;;;19.70;76.50;;;;;;4193703;28;20052;-50
2021/05/11 12:58:34;;;;;;;0.65;0.63;;;19.70;76.70;;;;;;4177322;28;20040;-48
2021/05/11 13:01:02;;;;;;;2.55;1.75;;;19.60;76.80;;;;;;4177087;28;20075;-50
2021/05/11 13:03:43;;;;;;;0.52;0.52;;;19.60;76.80;;;;;;4185427;28;20411;-49
2021/05/11 13:16:53;;;;;;;0.00;0.00;;;19.40;77.50;;;;;;4176762;28;20747;-49
2021/05/11 13:27:21;;;;;;;0.00;0.00;;;19.30;78.90;;;;;;4176726;28;20491;-50
2021/05/11 13:29:52;;;;;;;0.00;0.00;;;19.20;79.10;;;;;;4192978;28;20418;-48
2021/05/11 13:32:19;;;;;;;1.33;0.80;;;19.20;79.40;;;;;;4187941;28;20068;-52
2021/05/11 13:34:41;;;;;;;0.35;0.35;;;19.20;79.50;;;;;;4182344;28;20064;-50
2021/05/11 13:37:03;;;;;;;0.00;0.00;;;19.20;79.60;;;;;;4193133;28;20064;-52
2021/05/11 13:39:25;;;;;;;0.00;0.00;;;19.20;80.60;;;;;;4193221;28;20048;-52
2021/05/11 13:41:46;;;;;;;0.08;0.08;;;19.20;80.70;;;;;;4193145;28;20134;-53
2021/05/11 13:44:09;;;;;;;0.00;0.00;;;19.20;79.90;;;;;;4191502;28;20506;-49
2021/05/11 13:46:31;;;;;;;0.40;0.25;;;19.20;80.10;;;;;;4192810;28;20106;-50
2021/05/11 13:48:53;;;;;;;0.00;0.00;;;19.10;80.10;;;;;;4191445;28;20052;-49
2021/05/11 13:51:18;;;;;;;0.00;0.00;;;19.10;80.10;;;;;;4192815;28;20752;-49
2021/05/11 13:53:41;;;;;;;0.70;0.70;;;19.10;80.20;;;;;;4192528;28;20135;-47
2021/05/11 13:56:20;;;;;;;0.00;0.00;;;19.10;80.20;;;;;;4187148;28;20056;-48
2021/05/11 14:01:52;;;;;;;0.03;0.03;;;19.10;80.30;;;;;;4175994;28;20049;-49
2021/05/11 14:04:14;;;;;;;0.00;0.00;;;19.10;80.40;;;;;;4176297;28;20056;-48
2021/05/11 14:06:37;;;;;;;0.00;0.00;;;19.10;80.30;;;;;;4176316;28;20036;-49
2021/05/11 14:08:59;;;;;;;0.15;0.15;;;19.10;80.40;;;;;;4177759;28;20114;-48
2021/05/11 14:11:22;;;;;;;0.00;0.00;;;19.10;80.30;;;;;;4178602;28;20063;-49
2021/05/11 14:13:44;;;;;;;0.00;0.00;;;19.10;80.40;;;;;;4175058;28;20049;-51
2021/05/11 14:16:06;;;;;;;0.10;0.10;;;19.10;80.50;;;;;;4192309;28;20084;-47
2021/05/11 14:18:28;;;;;;;0.03;0.03;;;19.10;80.60;;;;;;4175894;28;20486;-47
2021/05/11 14:20:49;;;;;;;0.20;0.20;;;19.10;80.60;;;;;;4186539;28;20072;-43
2021/05/11 14:23:12;;;;;;;0.45;0.45;;;19.00;80.50;;;;;;4191545;28;20056;-46
2021/05/11 14:25:33;;;;;;;2.70;0.68;;;19.10;81.70;;;;;;4183730;28;20044;-47
2021/05/11 14:27:54;;;;;;;0.00;0.00;;;19.10;81.60;;;;;;4192155;28;20513;-48
2021/05/11 14:30:17;;;;;;;0.00;0.00;;;19.10;81.20;;;;;;4188267;28;20049;-47
2021/05/11 14:32:39;;;;;;;0.10;0.10;;;19.10;81.20;;;;;;4191404;28;20048;-47
2021/05/11 14:35:01;;;;;;;0.45;0.45;;;19.10;81.00;;;;;;4189489;28;20052;-46
2021/05/11 14:37:22;;;;;;;0.00;0.00;;;19.00;80.90;;;;;;4177233;28;20422;-46
2021/05/11 14:39:45;;;;;;;0.00;0.00;;;19.00;81.00;;;;;;4176403;28;20049;-48
2021/05/11 14:42:07;;;;;;;0.00;0.00;;;19.00;81.10;;;;;;4189247;28;20057;-48
2021/05/11 14:44:29;;;;;;;0.00;0.00;;;19.00;81.10;;;;;;4188645;28;20094;-46
2021/05/11 14:46:52;;;;;;;0.00;0.00;;;19.00;81.30;;;;;;4183830;28;20091;-48
2021/05/11 14:49:14;;;;;;;15.00;1.83;;;18.90;81.20;;;;;;4189068;28;20091;-50
2021/05/11 14:51:36;;;;;;;0.05;0.05;;;18.90;81.20;;;;;;4186654;28;20491;-50
2021/05/11 14:53:58;;;;;;;0.10;0.10;;;18.90;81.40;;;;;;4206025;28;20055;-46
2021/05/11 14:56:21;;;;;;;0.00;0.00;;;18.90;81.40;;;;;;4176986;28;20048;-48
2021/05/11 14:58:43;;;;;;;0.00;0.00;;;18.90;81.30;;;;;;4176668;28;20143;-47
2021/05/11 15:01:05;;;;;;;0.10;0.10;;;18.90;81.30;;;;;;4191579;28;20101;-46
2021/05/11 15:03:27;;;;;;;0.20;0.20;;;18.90;81.30;;;;;;4195424;28;20062;-49
2021/05/11 15:06:09;;;;;;;0.20;0.20;;;18.90;81.20;;;;;;4192928;28;20055;-46
2021/05/11 15:08:30;;;;;;;0.00;0.00;;;18.90;81.20;;;;;;4191601;28;20048;-49
2021/05/11 15:10:52;;;;;;;0.00;0.00;;;18.90;81.40;;;;;;4175362;28;20072;-52
2021/05/11 15:13:15;;;;;;;0.00;0.00;;;18.90;81.20;;;;;;4186846;28;20496;-49
2021/05/11 15:15:39;;;;;;;0.00;0.00;;;18.90;81.00;;;;;;4175498;28;20079;-48
2021/05/11 15:18:05;;;;;;;0.00;0.00;;;18.90;81.10;;;;;;4186882;28;20506;-47
2021/05/11 15:20:27;;;;;;;0.00;0.00;;;18.90;81.10;;;;;;4182723;28;20120;-50
2021/05/11 15:22:58;;;;;;;0.00;0.00;;;18.90;81.30;;;;;;4188734;28;20044;-47
2021/05/11 15:25:20;;;;;;;0.00;0.00;;;18.80;81.10;;;;;;4188195;28;20052;-50
2021/05/11 15:27:42;;;;;;;0.00;0.00;;;18.80;81.20;;;;;;4176405;28;20467;-48
2021/05/11 15:30:20;;;;;;;0.00;0.00;;;18.90;81.40;;;;;;4191973;28;20044;-48
2021/05/11 15:32:43;;;;;;;0.00;0.00;;;18.80;81.20;;;;;;4177895;28;20060;-46
2021/05/11 15:35:08;;;;;;;0.00;0.00;;;18.80;80.70;;;;;;4178794;28;20136;-47
2021/05/11 15:37:29;;;;;;;0.15;0.15;;;18.80;80.60;;;;;;4174761;28;20208;-48
2021/05/11 15:39:50;;;;;;;0.00;0.00;;;18.80;80.30;;;;;;4175268;28;20452;-48
2021/05/11 15:42:12;;;;;;;0.00;0.00;;;18.80;80.50;;;;;;4191424;28;20048;-47
2021/05/11 15:44:34;;;;;;;0.00;0.00;;;18.80;80.20;;;;;;4192588;28;20055;-49